sensor_id;sensor_type;location;lat;lon;timestamp;temperature;humidity
14144;DHT22;7152;48.348;10.980;2023-06-14T00:00:58;14.90;71.00
14144;DHT22;7152;48.348;10.980;2023-06-14T00:03:24;14.90;71.10
14144;DHT22;7152;48.348;10.980;2023-06-14T00:05:51;14.90;71.20
14144;DHT22;7152;48.348;10.980;2023-06-14T00:08:17;14.90;71.10
14144;DHT22;7152;48.348;10.980;2023-06-14T00:10:44;14.80;71.30
14144;DHT22;7152;48.348;10.980;2023-06-14T00:13:10;14.80;71.30
14144;DHT22;7152;48.348;10.980;2023-06-14T00:15:36;14.70;71.30
14144;DHT22;7152;48.348;10.980;2023-06-14T00:18:03;14.70;72.10
14144;DHT22;7152;48.348;10.980;2023-06-14T00:20:30;14.70;72.00
14144;DHT22;7152;48.348;10.980;2023-06-14T00:23:01;14.60;72.00
14144;DHT22;7152;48.348;10.980;2023-06-14T00:25:27;14.60;72.40
14144;DHT22;7152;48.348;10.980;2023-06-14T00:27:56;14.50;72.50
14144;DHT22;7152;48.348;10.980;2023-06-14T00:30:22;14.50;73.10
14144;DHT22;7152;48.348;10.980;2023-06-14T00:32:49;14.40;73.40
14144;DHT22;7152;48.348;10.980;2023-06-14T00:35:17;14.40;73.90
14144;DHT22;7152;48.348;10.980;2023-06-14T00:37:43;14.30;74.20
14144;DHT22;7152;48.348;10.980;2023-06-14T00:40:09;14.30;74.60
14144;DHT22;7152;48.348;10.980;2023-06-14T00:42:35;14.20;75.00
14144;DHT22;7152;48.348;10.980;2023-06-14T00:45:01;14.20;75.30
14144;DHT22;7152;48.348;10.980;2023-06-14T00:47:26;14.10;75.30
14144;DHT22;7152;48.348;10.980;2023-06-14T00:49:53;14.10;75.60
14144;DHT22;7152;48.348;10.980;2023-06-14T00:52:20;14.00;75.20
14144;DHT22;7152;48.348;10.980;2023-06-14T00:54:46;14.00;75.20
14144;DHT22;7152;48.348;10.980;2023-06-14T00:57:13;14.10;75.20
14144;DHT22;7152;48.348;10.980;2023-06-14T00:59:44;14.00;75.00
14144;DHT22;7152;48.348;10.980;2023-06-14T01:02:10;14.00;76.50
14144;DHT22;7152;48.348;10.980;2023-06-14T01:04:37;14.00;77.60
14144;DHT22;7152;48.348;10.980;2023-06-14T01:07:33;13.90;77.70
14144;DHT22;7152;48.348;10.980;2023-06-14T01:15:34;13.80;82.50
14144;DHT22;7152;48.348;10.980;2023-06-14T01:18:03;13.80;81.70
14144;DHT22;7152;48.348;10.980;2023-06-14T01:20:31;13.70;83.30
14144;DHT22;7152;48.348;10.980;2023-06-14T01:22:58;13.70;85.00
14144;DHT22;7152;48.348;10.980;2023-06-14T01:25:24;13.60;85.20
14144;DHT22;7152;48.348;10.980;2023-06-14T01:28:00;13.50;84.70
14144;DHT22;7152;48.348;10.980;2023-06-14T01:30:29;13.50;85.30
14144;DHT22;7152;48.348;10.980;2023-06-14T01:32:57;13.50;85.00
14144;DHT22;7152;48.348;10.980;2023-06-14T01:35:23;13.40;85.20
14144;DHT22;7152;48.348;10.980;2023-06-14T01:37:50;13.40;85.90
14144;DHT22;7152;48.348;10.980;2023-06-14T01:40:18;13.40;86.60
14144;DHT22;7152;48.348;10.980;2023-06-14T01:42:46;13.30;87.30
14144;DHT22;7152;48.348;10.980;2023-06-14T01:45:14;13.30;88.10
14144;DHT22;7152;48.348;10.980;2023-06-14T01:47:40;13.20;88.00
14144;DHT22;7152;48.348;10.980;2023-06-14T01:50:07;13.20;88.60
14144;DHT22;7152;48.348;10.980;2023-06-14T01:52:33;13.10;87.30
14144;DHT22;7152;48.348;10.980;2023-06-14T01:54:59;13.10;87.20
14144;DHT22;7152;48.348;10.980;2023-06-14T01:57:28;13.00;87.10
14144;DHT22;7152;48.348;10.980;2023-06-14T01:59:54;13.00;87.20
14144;DHT22;7152;48.348;10.980;2023-06-14T02:02:20;13.00;86.90
14144;DHT22;7152;48.348;10.980;2023-06-14T02:04:46;13.00;87.10
14144;DHT22;7152;48.348;10.980;2023-06-14T02:07:13;12.90;88.20
14144;DHT22;7152;48.348;10.980;2023-06-14T02:09:41;12.90;90.30
14144;DHT22;7152;48.348;10.980;2023-06-14T02:12:07;12.80;91.30
14144;DHT22;7152;48.348;10.980;2023-06-14T02:14:33;12.80;91.70
14144;DHT22;7152;48.348;10.980;2023-06-14T02:16:59;12.70;91.80
14144;DHT22;7152;48.348;10.980;2023-06-14T02:19:26;12.70;92.00
14144;DHT22;7152;48.348;10.980;2023-06-14T02:21:52;12.70;92.10
14144;DHT22;7152;48.348;10.980;2023-06-14T02:24:18;12.60;92.00
14144;DHT22;7152;48.348;10.980;2023-06-14T02:26:44;12.60;91.60
14144;DHT22;7152;48.348;10.980;2023-06-14T02:29:14;12.60;91.60
14144;DHT22;7152;48.348;10.980;2023-06-14T02:31:40;12.50;91.60
14144;DHT22;7152;48.348;10.980;2023-06-14T02:34:06;12.50;91.50
14144;DHT22;7152;48.348;10.980;2023-06-14T02:36:35;12.40;91.80
14144;DHT22;7152;48.348;10.980;2023-06-14T02:39:08;12.40;91.60
14144;DHT22;7152;48.348;10.980;2023-06-14T02:41:34;12.40;91.60
14144;DHT22;7152;48.348;10.980;2023-06-14T02:44:00;12.40;91.50
14144;DHT22;7152;48.348;10.980;2023-06-14T02:46:28;12.30;91.50
14144;DHT22;7152;48.348;10.980;2023-06-14T02:48:54;12.30;91.70
14144;DHT22;7152;48.348;10.980;2023-06-14T02:51:20;12.30;91.80
14144;DHT22;7152;48.348;10.980;2023-06-14T02:53:45;12.30;91.70
14144;DHT22;7152;48.348;10.980;2023-06-14T02:56:11;12.30;91.80
14144;DHT22;7152;48.348;10.980;2023-06-14T02:58:38;12.30;91.70
14144;DHT22;7152;48.348;10.980;2023-06-14T03:01:05;12.30;91.70
14144;DHT22;7152;48.348;10.980;2023-06-14T03:03:33;12.30;91.60
14144;DHT22;7152;48.348;10.980;2023-06-14T03:05:59;12.30;91.70
14144;DHT22;7152;48.348;10.980;2023-06-14T03:08:32;12.20;91.60
14144;DHT22;7152;48.348;10.980;2023-06-14T03:11:06;12.30;91.90
14144;DHT22;7152;48.348;10.980;2023-06-14T03:13:35;12.30;92.10
14144;DHT22;7152;48.348;10.980;2023-06-14T03:16:02;12.30;92.50
14144;DHT22;7152;48.348;10.980;2023-06-14T03:18:30;12.30;92.90
14144;DHT22;7152;48.348;10.980;2023-06-14T03:20:57;12.20;93.20
14144;DHT22;7152;48.348;10.980;2023-06-14T03:23:24;12.20;93.50
14144;DHT22;7152;48.348;10.980;2023-06-14T03:25:54;12.20;93.90
14144;DHT22;7152;48.348;10.980;2023-06-14T03:28:19;12.10;94.20
14144;DHT22;7152;48.348;10.980;2023-06-14T03:30:45;12.10;94.30
14144;DHT22;7152;48.348;10.980;2023-06-14T03:33:12;12.00;94.20
14144;DHT22;7152;48.348;10.980;2023-06-14T03:35:39;12.10;93.90
14144;DHT22;7152;48.348;10.980;2023-06-14T03:38:05;12.10;93.80
14144;DHT22;7152;48.348;10.980;2023-06-14T03:40:31;12.10;93.60
14144;DHT22;7152;48.348;10.980;2023-06-14T03:43:01;12.20;93.30
14144;DHT22;7152;48.348;10.980;2023-06-14T03:45:27;12.20;93.30
14144;DHT22;7152;48.348;10.980;2023-06-14T03:47:54;12.20;93.30
14144;DHT22;7152;48.348;10.980;2023-06-14T03:50:20;12.20;93.30
14144;DHT22;7152;48.348;10.980;2023-06-14T03:52:48;12.10;93.20
14144;DHT22;7152;48.348;10.980;2023-06-14T03:55:15;12.20;93.30
14144;DHT22;7152;48.348;10.980;2023-06-14T03:57:42;12.20;93.30
14144;DHT22;7152;48.348;10.980;2023-06-14T04:00:11;12.20;93.30
14144;DHT22;7152;48.348;10.980;2023-06-14T04:02:41;12.20;93.30
14144;DHT22;7152;48.348;10.980;2023-06-14T04:05:08;12.20;93.30
14144;DHT22;7152;48.348;10.980;2023-06-14T04:07:37;12.20;93.20
14144;DHT22;7152;48.348;10.980;2023-06-14T04:10:07;12.20;93.30
14144;DHT22;7152;48.348;10.980;2023-06-14T04:12:33;12.30;93.10
14144;DHT22;7152;48.348;10.980;2023-06-14T04:14:59;12.30;93.10
14144;DHT22;7152;48.348;10.980;2023-06-14T04:17:27;12.30;92.90
14144;DHT22;7152;48.348;10.980;2023-06-14T04:19:52;12.30;93.00
14144;DHT22;7152;48.348;10.980;2023-06-14T04:22:19;12.40;93.10
14144;DHT22;7152;48.348;10.980;2023-06-14T04:24:45;12.40;93.10
14144;DHT22;7152;48.348;10.980;2023-06-14T04:27:11;12.40;93.30
14144;DHT22;7152;48.348;10.980;2023-06-14T04:29:39;12.50;93.20
14144;DHT22;7152;48.348;10.980;2023-06-14T04:32:09;12.50;93.40
14144;DHT22;7152;48.348;10.980;2023-06-14T04:34:37;12.60;93.40
14144;DHT22;7152;48.348;10.980;2023-06-14T04:37:05;12.60;93.40
14144;DHT22;7152;48.348;10.980;2023-06-14T04:39:36;12.60;93.40
14144;DHT22;7152;48.348;10.980;2023-06-14T04:42:02;12.60;93.60
14144;DHT22;7152;48.348;10.980;2023-06-14T04:44:29;12.70;93.80
14144;DHT22;7152;48.348;10.980;2023-06-14T04:46:58;12.70;94.00
14144;DHT22;7152;48.348;10.980;2023-06-14T04:49:25;12.70;94.00
14144;DHT22;7152;48.348;10.980;2023-06-14T04:51:53;12.70;94.30
14144;DHT22;7152;48.348;10.980;2023-06-14T04:54:25;12.70;93.90
14144;DHT22;7152;48.348;10.980;2023-06-14T04:56:54;12.80;94.00
14144;DHT22;7152;48.348;10.980;2023-06-14T04:59:23;12.80;93.70
14144;DHT22;7152;48.348;10.980;2023-06-14T05:01:50;12.90;93.60
14144;DHT22;7152;48.348;10.980;2023-06-14T05:04:18;13.00;93.60
14144;DHT22;7152;48.348;10.980;2023-06-14T05:06:45;13.00;94.00
14144;DHT22;7152;48.348;10.980;2023-06-14T05:09:13;13.00;94.10
14144;DHT22;7152;48.348;10.980;2023-06-14T05:11:39;13.00;94.20
14144;DHT22;7152;48.348;10.980;2023-06-14T05:14:05;13.10;94.20
14144;DHT22;7152;48.348;10.980;2023-06-14T05:16:32;13.10;94.60
14144;DHT22;7152;48.348;10.980;2023-06-14T05:18:57;13.20;94.80
14144;DHT22;7152;48.348;10.980;2023-06-14T05:21:24;13.30;94.40
14144;DHT22;7152;48.348;10.980;2023-06-14T05:23:51;13.40;94.30
14144;DHT22;7152;48.348;10.980;2023-06-14T05:26:16;13.50;94.20
14144;DHT22;7152;48.348;10.980;2023-06-14T05:28:42;13.50;93.90
14144;DHT22;7152;48.348;10.980;2023-06-14T05:31:08;13.60;93.70
14144;DHT22;7152;48.348;10.980;2023-06-14T05:33:34;13.70;93.90
14144;DHT22;7152;48.348;10.980;2023-06-14T05:36:00;13.80;93.90
14144;DHT22;7152;48.348;10.980;2023-06-14T05:38:26;13.80;94.00
14144;DHT22;7152;48.348;10.980;2023-06-14T05:40:52;13.90;94.00
14144;DHT22;7152;48.348;10.980;2023-06-14T05:43:19;13.90;93.50
14144;DHT22;7152;48.348;10.980;2023-06-14T05:45:44;14.00;93.70
14144;DHT22;7152;48.348;10.980;2023-06-14T05:48:10;14.10;93.60
14144;DHT22;7152;48.348;10.980;2023-06-14T05:50:36;14.20;93.70
14144;DHT22;7152;48.348;10.980;2023-06-14T05:53:02;14.20;93.70
14144;DHT22;7152;48.348;10.980;2023-06-14T05:55:28;14.30;93.50
14144;DHT22;7152;48.348;10.980;2023-06-14T05:57:53;14.40;93.20
14144;DHT22;7152;48.348;10.980;2023-06-14T06:00:20;14.50;93.30
14144;DHT22;7152;48.348;10.980;2023-06-14T06:02:46;14.60;93.00
14144;DHT22;7152;48.348;10.980;2023-06-14T06:05:13;14.70;93.20
14144;DHT22;7152;48.348;10.980;2023-06-14T06:07:39;14.70;93.00
14144;DHT22;7152;48.348;10.980;2023-06-14T06:10:06;14.80;93.10
14144;DHT22;7152;48.348;10.980;2023-06-14T06:12:32;14.90;92.90
14144;DHT22;7152;48.348;10.980;2023-06-14T06:14:59;14.90;92.80
14144;DHT22;7152;48.348;10.980;2023-06-14T06:17:25;15.00;93.00
14144;DHT22;7152;48.348;10.980;2023-06-14T06:19:52;15.10;93.10
14144;DHT22;7152;48.348;10.980;2023-06-14T06:22:17;15.20;92.90
14144;DHT22;7152;48.348;10.980;2023-06-14T06:24:43;15.30;93.00
14144;DHT22;7152;48.348;10.980;2023-06-14T06:27:09;15.30;92.80
14144;DHT22;7152;48.348;10.980;2023-06-14T06:29:38;15.40;92.90
14144;DHT22;7152;48.348;10.980;2023-06-14T06:32:05;15.50;93.00
14144;DHT22;7152;48.348;10.980;2023-06-14T06:34:31;15.60;93.10
14144;DHT22;7152;48.348;10.980;2023-06-14T06:36:57;15.60;92.50
14144;DHT22;7152;48.348;10.980;2023-06-14T06:39:22;15.70;92.30
14144;DHT22;7152;48.348;10.980;2023-06-14T06:41:48;15.80;92.10
14144;DHT22;7152;48.348;10.980;2023-06-14T06:44:24;15.90;92.20
14144;DHT22;7152;48.348;10.980;2023-06-14T06:46:50;15.90;91.60
14144;DHT22;7152;48.348;10.980;2023-06-14T06:49:16;16.00;91.70
14144;DHT22;7152;48.348;10.980;2023-06-14T06:51:42;16.10;91.70
14144;DHT22;7152;48.348;10.980;2023-06-14T06:54:10;16.10;91.60
14144;DHT22;7152;48.348;10.980;2023-06-14T06:56:36;16.30;91.70
14144;DHT22;7152;48.348;10.980;2023-06-14T06:59:02;16.40;91.50
14144;DHT22;7152;48.348;10.980;2023-06-14T07:01:28;16.50;91.20
14144;DHT22;7152;48.348;10.980;2023-06-14T07:03:55;16.60;91.40
14144;DHT22;7152;48.348;10.980;2023-06-14T07:06:21;16.70;91.10
14144;DHT22;7152;48.348;10.980;2023-06-14T07:08:47;16.80;91.10
14144;DHT22;7152;48.348;10.980;2023-06-14T07:11:14;16.90;90.80
14144;DHT22;7152;48.348;10.980;2023-06-14T07:13:40;17.00;90.70
14144;DHT22;7152;48.348;10.980;2023-06-14T07:16:06;17.10;90.90
14144;DHT22;7152;48.348;10.980;2023-06-14T07:18:32;17.30;90.70
14144;DHT22;7152;48.348;10.980;2023-06-14T07:20:58;17.40;90.50
14144;DHT22;7152;48.348;10.980;2023-06-14T07:23:24;17.50;90.70
14144;DHT22;7152;48.348;10.980;2023-06-14T07:25:50;17.60;90.60
14144;DHT22;7152;48.348;10.980;2023-06-14T07:28:16;17.80;90.60
14144;DHT22;7152;48.348;10.980;2023-06-14T07:30:43;17.90;90.50
14144;DHT22;7152;48.348;10.980;2023-06-14T07:33:09;18.10;90.50
14144;DHT22;7152;48.348;10.980;2023-06-14T07:35:35;18.20;90.30
14144;DHT22;7152;48.348;10.980;2023-06-14T07:38:01;18.30;90.30
14144;DHT22;7152;48.348;10.980;2023-06-14T07:40:30;18.50;90.30
14144;DHT22;7152;48.348;10.980;2023-06-14T07:42:56;18.60;89.20
14144;DHT22;7152;48.348;10.980;2023-06-14T07:45:22;18.70;88.70
14144;DHT22;7152;48.348;10.980;2023-06-14T07:47:48;18.80;88.40
14144;DHT22;7152;48.348;10.980;2023-06-14T07:50:13;19.00;88.10
14144;DHT22;7152;48.348;10.980;2023-06-14T07:52:39;19.10;87.90
14144;DHT22;7152;48.348;10.980;2023-06-14T07:55:05;19.20;88.00
14144;DHT22;7152;48.348;10.980;2023-06-14T07:57:31;19.30;88.30
14144;DHT22;7152;48.348;10.980;2023-06-14T07:59:57;19.40;88.00
14144;DHT22;7152;48.348;10.980;2023-06-14T08:02:23;19.60;88.00
14144;DHT22;7152;48.348;10.980;2023-06-14T08:04:52;19.60;87.10
14144;DHT22;7152;48.348;10.980;2023-06-14T08:07:18;19.70;87.00
14144;DHT22;7152;48.348;10.980;2023-06-14T08:09:43;19.80;86.20
14144;DHT22;7152;48.348;10.980;2023-06-14T08:12:09;19.90;85.90
14144;DHT22;7152;48.348;10.980;2023-06-14T08:14:36;20.00;85.50
14144;DHT22;7152;48.348;10.980;2023-06-14T08:17:02;20.10;85.20
14144;DHT22;7152;48.348;10.980;2023-06-14T08:19:27;20.20;85.30
14144;DHT22;7152;48.348;10.980;2023-06-14T08:21:53;20.30;85.00
14144;DHT22;7152;48.348;10.980;2023-06-14T08:24:23;20.40;83.80
14144;DHT22;7152;48.348;10.980;2023-06-14T08:26:55;20.50;83.10
14144;DHT22;7152;48.348;10.980;2023-06-14T08:29:24;20.70;82.60
14144;DHT22;7152;48.348;10.980;2023-06-14T08:31:50;20.80;81.80
14144;DHT22;7152;48.348;10.980;2023-06-14T08:34:16;20.90;81.20
14144;DHT22;7152;48.348;10.980;2023-06-14T08:36:42;21.00;80.50
14144;DHT22;7152;48.348;10.980;2023-06-14T08:39:08;21.10;79.60
14144;DHT22;7152;48.348;10.980;2023-06-14T08:41:35;21.20;79.40
14144;DHT22;7152;48.348;10.980;2023-06-14T08:44:04;21.30;78.90
14144;DHT22;7152;48.348;10.980;2023-06-14T08:46:32;21.30;75.60
14144;DHT22;7152;48.348;10.980;2023-06-14T08:49:01;21.50;75.70
14144;DHT22;7152;48.348;10.980;2023-06-14T08:51:28;21.60;75.80
14144;DHT22;7152;48.348;10.980;2023-06-14T08:53:59;21.70;75.90
14144;DHT22;7152;48.348;10.980;2023-06-14T08:56:31;21.80;76.00
14144;DHT22;7152;48.348;10.980;2023-06-14T08:58:58;21.80;75.50
14144;DHT22;7152;48.348;10.980;2023-06-14T09:01:33;21.90;75.30
14144;DHT22;7152;48.348;10.980;2023-06-14T09:04:00;22.10;74.70
14144;DHT22;7152;48.348;10.980;2023-06-14T09:06:26;22.10;73.80
14144;DHT22;7152;48.348;10.980;2023-06-14T09:08:55;22.30;73.10
14144;DHT22;7152;48.348;10.980;2023-06-14T09:11:24;22.40;73.40
14144;DHT22;7152;48.348;10.980;2023-06-14T09:13:51;22.50;72.60
14144;DHT22;7152;48.348;10.980;2023-06-14T09:16:17;22.60;71.30
14144;DHT22;7152;48.348;10.980;2023-06-14T09:18:45;22.70;71.30
14144;DHT22;7152;48.348;10.980;2023-06-14T09:21:14;22.80;70.10
14144;DHT22;7152;48.348;10.980;2023-06-14T09:23:42;23.00;70.50
14144;DHT22;7152;48.348;10.980;2023-06-14T09:26:09;23.10;69.30
14144;DHT22;7152;48.348;10.980;2023-06-14T09:28:40;23.20;68.90
14144;DHT22;7152;48.348;10.980;2023-06-14T09:31:07;23.20;68.30
14144;DHT22;7152;48.348;10.980;2023-06-14T09:33:34;23.30;67.70
14144;DHT22;7152;48.348;10.980;2023-06-14T09:36:00;23.50;67.90
14144;DHT22;7152;48.348;10.980;2023-06-14T09:38:26;23.60;67.60
14144;DHT22;7152;48.348;10.980;2023-06-14T09:40:52;23.70;67.10
14144;DHT22;7152;48.348;10.980;2023-06-14T09:43:18;23.80;66.90
14144;DHT22;7152;48.348;10.980;2023-06-14T09:45:45;24.00;65.80
14144;DHT22;7152;48.348;10.980;2023-06-14T09:48:14;24.10;65.50
14144;DHT22;7152;48.348;10.980;2023-06-14T09:50:45;24.40;65.60
14144;DHT22;7152;48.348;10.980;2023-06-14T09:53:12;24.50;65.10
14144;DHT22;7152;48.348;10.980;2023-06-14T09:55:41;24.60;64.90
14144;DHT22;7152;48.348;10.980;2023-06-14T09:58:08;24.60;64.00
14144;DHT22;7152;48.348;10.980;2023-06-14T10:00:36;24.70;64.00
14144;DHT22;7152;48.348;10.980;2023-06-14T10:03:21;24.90;63.50
14144;DHT22;7152;48.348;10.980;2023-06-14T10:05:48;25.10;62.10
14144;DHT22;7152;48.348;10.980;2023-06-14T10:08:18;25.30;61.90
14144;DHT22;7152;48.348;10.980;2023-06-14T10:10:44;25.50;62.20
14144;DHT22;7152;48.348;10.980;2023-06-14T10:13:11;25.70;62.50
14144;DHT22;7152;48.348;10.980;2023-06-14T10:16:10;25.80;61.30
14144;DHT22;7152;48.348;10.980;2023-06-14T10:18:59;26.00;60.30
14144;DHT22;7152;48.348;10.980;2023-06-14T10:21:41;26.20;58.30
14144;DHT22;7152;48.348;10.980;2023-06-14T10:24:12;26.20;57.80
14144;DHT22;7152;48.348;10.980;2023-06-14T10:26:51;26.50;59.20
14144;DHT22;7152;48.348;10.980;2023-06-14T10:29:17;26.50;58.30
14144;DHT22;7152;48.348;10.980;2023-06-14T10:31:47;26.80;58.10
14144;DHT22;7152;48.348;10.980;2023-06-14T10:34:31;27.00;57.00
14144;DHT22;7152;48.348;10.980;2023-06-14T10:37:08;27.30;56.00
14144;DHT22;7152;48.348;10.980;2023-06-14T10:39:43;27.40;56.10
14144;DHT22;7152;48.348;10.980;2023-06-14T10:42:11;27.70;55.30
14144;DHT22;7152;48.348;10.980;2023-06-14T10:44:39;27.80;55.70
14144;DHT22;7152;48.348;10.980;2023-06-14T10:52:22;28.30;54.50
14144;DHT22;7152;48.348;10.980;2023-06-14T10:55:15;28.30;53.50
14144;DHT22;7152;48.348;10.980;2023-06-14T11:00:13;28.50;52.90
14144;DHT22;7152;48.348;10.980;2023-06-14T11:05:55;29.40;53.30
14144;DHT22;7152;48.348;10.980;2023-06-14T11:08:39;29.70;52.50
14144;DHT22;7152;48.348;10.980;2023-06-14T11:11:07;29.90;51.90
14144;DHT22;7152;48.348;10.980;2023-06-14T11:13:36;30.10;51.90
14144;DHT22;7152;48.348;10.980;2023-06-14T11:16:13;30.20;51.20
14144;DHT22;7152;48.348;10.980;2023-06-14T11:18:39;30.30;51.10
14144;DHT22;7152;48.348;10.980;2023-06-14T11:21:05;30.60;50.70
14144;DHT22;7152;48.348;10.980;2023-06-14T11:23:31;30.90;50.40
14144;DHT22;7152;48.348;10.980;2023-06-14T11:25:57;30.60;50.20
14144;DHT22;7152;48.348;10.980;2023-06-14T11:28:23;29.60;50.10
14144;DHT22;7152;48.348;10.980;2023-06-14T11:31:00;29.00;50.60
14144;DHT22;7152;48.348;10.980;2023-06-14T11:33:26;28.20;50.30
14144;DHT22;7152;48.348;10.980;2023-06-14T11:35:52;28.00;50.90
14144;DHT22;7152;48.348;10.980;2023-06-14T11:38:18;28.80;51.00
14144;DHT22;7152;48.348;10.980;2023-06-14T11:40:43;29.40;50.70
14144;DHT22;7152;48.348;10.980;2023-06-14T11:43:09;29.70;50.00
14144;DHT22;7152;48.348;10.980;2023-06-14T11:45:35;30.70;49.40
14144;DHT22;7152;48.348;10.980;2023-06-14T11:48:01;31.50;48.80
14144;DHT22;7152;48.348;10.980;2023-06-14T11:50:27;32.10;47.50
14144;DHT22;7152;48.348;10.980;2023-06-14T11:52:58;32.80;46.80
14144;DHT22;7152;48.348;10.980;2023-06-14T11:55:25;33.30;46.70
14144;DHT22;7152;48.348;10.980;2023-06-14T11:57:54;33.80;45.80
14144;DHT22;7152;48.348;10.980;2023-06-14T12:00:25;34.10;45.50
14144;DHT22;7152;48.348;10.980;2023-06-14T12:02:55;34.20;44.00
14144;DHT22;7152;48.348;10.980;2023-06-14T12:05:25;34.40;44.10
14144;DHT22;7152;48.348;10.980;2023-06-14T12:08:02;34.80;43.90
14144;DHT22;7152;48.348;10.980;2023-06-14T12:10:29;35.20;43.00
14144;DHT22;7152;48.348;10.980;2023-06-14T12:12:59;35.30;42.50
14144;DHT22;7152;48.348;10.980;2023-06-14T12:15:28;35.50;42.80
14144;DHT22;7152;48.348;10.980;2023-06-14T12:17:54;36.00;43.30
14144;DHT22;7152;48.348;10.980;2023-06-14T12:20:20;35.80;43.40
14144;DHT22;7152;48.348;10.980;2023-06-14T12:22:53;35.80;42.70
14144;DHT22;7152;48.348;10.980;2023-06-14T12:25:30;34.90;42.80
14144;DHT22;7152;48.348;10.980;2023-06-14T12:28:04;34.30;42.50
14144;DHT22;7152;48.348;10.980;2023-06-14T12:30:30;34.70;43.30
14144;DHT22;7152;48.348;10.980;2023-06-14T12:32:56;34.90;43.50
14144;DHT22;7152;48.348;10.980;2023-06-14T12:35:24;35.30;42.20
14144;DHT22;7152;48.348;10.980;2023-06-14T12:37:50;35.80;41.70
14144;DHT22;7152;48.348;10.980;2023-06-14T12:40:16;36.10;41.00
14144;DHT22;7152;48.348;10.980;2023-06-14T12:42:41;36.50;40.60
14144;DHT22;7152;48.348;10.980;2023-06-14T12:45:11;36.70;40.20
14144;DHT22;7152;48.348;10.980;2023-06-14T12:47:37;36.90;40.30
14144;DHT22;7152;48.348;10.980;2023-06-14T12:50:03;37.10;40.40
14144;DHT22;7152;48.348;10.980;2023-06-14T12:52:29;37.60;40.20
14144;DHT22;7152;48.348;10.980;2023-06-14T12:54:56;38.00;39.90
14144;DHT22;7152;48.348;10.980;2023-06-14T12:57:22;37.40;39.90
14144;DHT22;7152;48.348;10.980;2023-06-14T12:59:48;36.30;40.80
14144;DHT22;7152;48.348;10.980;2023-06-14T13:02:19;35.40;40.80
14144;DHT22;7152;48.348;10.980;2023-06-14T13:04:48;35.00;40.80
14144;DHT22;7152;48.348;10.980;2023-06-14T13:07:13;35.70;40.40
14144;DHT22;7152;48.348;10.980;2023-06-14T13:09:41;36.10;40.60
14144;DHT22;7152;48.348;10.980;2023-06-14T13:12:09;36.70;40.20
14144;DHT22;7152;48.348;10.980;2023-06-14T13:14:37;36.90;39.70
14144;DHT22;7152;48.348;10.980;2023-06-14T13:17:03;37.40;39.30
14144;DHT22;7152;48.348;10.980;2023-06-14T13:19:29;38.00;38.80
14144;DHT22;7152;48.348;10.980;2023-06-14T13:21:55;38.40;38.30
14144;DHT22;7152;48.348;10.980;2023-06-14T13:24:21;38.60;38.50
14144;DHT22;7152;48.348;10.980;2023-06-14T13:26:47;39.20;38.70
14144;DHT22;7152;48.348;10.980;2023-06-14T13:29:13;39.50;38.30
14144;DHT22;7152;48.348;10.980;2023-06-14T13:31:39;38.20;38.30
14144;DHT22;7152;48.348;10.980;2023-06-14T13:34:08;36.50;38.20
14144;DHT22;7152;48.348;10.980;2023-06-14T13:36:34;35.40;39.10
14144;DHT22;7152;48.348;10.980;2023-06-14T13:39:00;34.70;39.80
14144;DHT22;7152;48.348;10.980;2023-06-14T13:41:28;34.10;40.30
14144;DHT22;7152;48.348;10.980;2023-06-14T13:44:02;33.30;40.40
14144;DHT22;7152;48.348;10.980;2023-06-14T13:46:31;32.60;41.00
14144;DHT22;7152;48.348;10.980;2023-06-14T13:48:57;32.80;42.00
14144;DHT22;7152;48.348;10.980;2023-06-14T13:51:23;32.60;42.70
14144;DHT22;7152;48.348;10.980;2023-06-14T13:53:49;32.40;42.70
14144;DHT22;7152;48.348;10.980;2023-06-14T13:56:16;33.20;41.90
14144;DHT22;7152;48.348;10.980;2023-06-14T13:58:43;34.40;41.30
14144;DHT22;7152;48.348;10.980;2023-06-14T14:01:09;35.50;41.00
14144;DHT22;7152;48.348;10.980;2023-06-14T14:03:36;36.20;40.30
14144;DHT22;7152;48.348;10.980;2023-06-14T14:06:03;36.70;39.30
14144;DHT22;7152;48.348;10.980;2023-06-14T14:08:29;37.30;39.10
14144;DHT22;7152;48.348;10.980;2023-06-14T14:10:55;37.90;38.90
14144;DHT22;7152;48.348;10.980;2023-06-14T14:13:24;38.40;38.90
14144;DHT22;7152;48.348;10.980;2023-06-14T14:15:50;38.50;38.60
14144;DHT22;7152;48.348;10.980;2023-06-14T14:18:16;37.30;38.30
14144;DHT22;7152;48.348;10.980;2023-06-14T14:20:42;36.00;39.00
14144;DHT22;7152;48.348;10.980;2023-06-14T14:23:09;35.00;39.50
14144;DHT22;7152;48.348;10.980;2023-06-14T14:25:34;33.90;40.00
14144;DHT22;7152;48.348;10.980;2023-06-14T14:28:01;33.00;41.10
14144;DHT22;7152;48.348;10.980;2023-06-14T14:30:27;32.80;42.00
14144;DHT22;7152;48.348;10.980;2023-06-14T14:32:53;32.70;41.90
14144;DHT22;7152;48.348;10.980;2023-06-14T14:35:19;32.20;42.20
14144;DHT22;7152;48.348;10.980;2023-06-14T14:37:45;32.40;42.50
14144;DHT22;7152;48.348;10.980;2023-06-14T14:40:12;33.20;41.80
14144;DHT22;7152;48.348;10.980;2023-06-14T14:42:37;34.40;41.40
14144;DHT22;7152;48.348;10.980;2023-06-14T14:45:04;35.60;41.20
14144;DHT22;7152;48.348;10.980;2023-06-14T14:47:30;36.40;40.10
14144;DHT22;7152;48.348;10.980;2023-06-14T14:49:56;37.10;39.80
14144;DHT22;7152;48.348;10.980;2023-06-14T14:52:22;37.90;39.50
14144;DHT22;7152;48.348;10.980;2023-06-14T14:54:48;38.40;38.60
14144;DHT22;7152;48.348;10.980;2023-06-14T14:57:14;38.50;38.10
14144;DHT22;7152;48.348;10.980;2023-06-14T14:59:39;39.40;38.60
14144;DHT22;7152;48.348;10.980;2023-06-14T15:02:05;39.90;37.80
14144;DHT22;7152;48.348;10.980;2023-06-14T15:04:32;40.10;37.30
14144;DHT22;7152;48.348;10.980;2023-06-14T15:06:57;40.40;36.80
14144;DHT22;7152;48.348;10.980;2023-06-14T15:09:23;40.40;36.30
14144;DHT22;7152;48.348;10.980;2023-06-14T15:11:49;40.50;36.20
14144;DHT22;7152;48.348;10.980;2023-06-14T15:14:15;39.70;36.10
14144;DHT22;7152;48.348;10.980;2023-06-14T15:16:41;38.70;36.20
14144;DHT22;7152;48.348;10.980;2023-06-14T15:19:07;38.90;36.10
14144;DHT22;7152;48.348;10.980;2023-06-14T15:21:32;39.20;36.10
14144;DHT22;7152;48.348;10.980;2023-06-14T15:23:58;39.50;36.00
14144;DHT22;7152;48.348;10.980;2023-06-14T15:26:25;39.50;35.40
14144;DHT22;7152;48.348;10.980;2023-06-14T15:28:51;39.70;34.80
14144;DHT22;7152;48.348;10.980;2023-06-14T15:31:17;40.40;35.10
14144;DHT22;7152;48.348;10.980;2023-06-14T15:33:42;40.70;35.50
14144;DHT22;7152;48.348;10.980;2023-06-14T15:36:10;41.00;35.50
14144;DHT22;7152;48.348;10.980;2023-06-14T15:38:36;41.20;35.60
14144;DHT22;7152;48.348;10.980;2023-06-14T15:41:02;41.30;35.20
14144;DHT22;7152;48.348;10.980;2023-06-14T15:43:28;40.00;35.40
14144;DHT22;7152;48.348;10.980;2023-06-14T15:45:54;38.60;36.00
14144;DHT22;7152;48.348;10.980;2023-06-14T15:48:20;38.50;36.90